sensor_id;sensor_type;location;lat;lon;timestamp;pressure;altitude;pressure_sealevel;temperature;humidity
19576;BME280;41589;51.196;7.074;2023-08-24T00:04:00;99184.31;;;23.16;41.23
19576;BME280;41589;51.196;7.074;2023-08-24T00:09:01;99179.44;;;23.11;41.50
19576;BME280;41589;51.196;7.074;2023-08-24T00:14:01;99176.34;;;23.09;41.32
19576;BME280;41589;51.196;7.074;2023-08-24T00:19:02;99175.50;;;23.14;41.66
19576;BME280;41589;51.196;7.074;2023-08-24T00:24:03;99169.06;;;23.08;41.52
19576;BME280;41589;51.196;7.074;2023-08-24T00:29:03;99163.78;;;23.12;41.32
19576;BME280;41589;51.196;7.074;2023-08-24T00:34:04;99159.91;;;23.10;41.23
19576;BME280;41589;51.196;7.074;2023-08-24T00:39:04;99164.22;;;23.03;41.85
19576;BME280;41589;51.196;7.074;2023-08-24T00:44:06;99167.53;;;23.07;41.65
19576;BME280;41589;51.196;7.074;2023-08-24T00:49:07;99151.19;;;23.02;41.50
19576;BME280;41589;51.196;7.074;2023-08-24T00:54:11;99165.03;;;22.98;41.88
19576;BME280;41589;51.196;7.074;2023-08-24T00:59:11;99157.88;;;22.91;41.92
19576;BME280;41589;51.196;7.074;2023-08-24T01:04:12;99141.06;;;22.82;41.97
19576;BME280;41589;51.196;7.074;2023-08-24T01:09:13;99152.97;;;22.86;42.28
19576;BME280;41589;51.196;7.074;2023-08-24T01:14:36;99147.78;;;22.85;41.99
19576;BME280;41589;51.196;7.074;2023-08-24T01:19:44;99133.41;;;22.71;41.63
19576;BME280;41589;51.196;7.074;2023-08-24T01:24:47;99138.50;;;22.79;42.04
19576;BME280;41589;51.196;7.074;2023-08-24T01:29:53;99117.53;;;22.70;41.97
19576;BME280;41589;51.196;7.074;2023-08-24T01:35:01;99134.75;;;22.70;41.62
19576;BME280;41589;51.196;7.074;2023-08-24T01:40:05;99143.47;;;22.78;41.75
19576;BME280;41589;51.196;7.074;2023-08-24T01:45:10;99144.91;;;22.71;41.29
19576;BME280;41589;51.196;7.074;2023-08-24T01:50:16;99147.09;;;22.79;41.34
19576;BME280;41589;51.196;7.074;2023-08-24T01:55:19;99143.47;;;22.78;41.84
19576;BME280;41589;51.196;7.074;2023-08-24T02:00:20;99130.00;;;22.73;41.80
19576;BME280;41589;51.196;7.074;2023-08-24T02:05:21;99114.66;;;22.70;41.16
19576;BME280;41589;51.196;7.074;2023-08-24T02:10:25;99104.03;;;22.65;41.64
19576;BME280;41589;51.196;7.074;2023-08-24T02:15:26;99095.75;;;22.62;41.45
19576;BME280;41589;51.196;7.074;2023-08-24T02:20:27;99097.09;;;22.61;41.43
19576;BME280;41589;51.196;7.074;2023-08-24T02:25:27;99094.75;;;22.59;41.49
19576;BME280;41589;51.196;7.074;2023-08-24T02:30:36;99099.50;;;22.57;41.59
19576;BME280;41589;51.196;7.074;2023-08-24T02:35:37;99102.91;;;22.55;41.57
19576;BME280;41589;51.196;7.074;2023-08-24T02:40:40;99114.16;;;22.53;41.48
19576;BME280;41589;51.196;7.074;2023-08-24T02:45:43;99116.03;;;22.51;41.54
19576;BME280;41589;51.196;7.074;2023-08-24T02:50:46;99105.88;;;22.50;41.60
19576;BME280;41589;51.196;7.074;2023-08-24T02:55:48;99109.53;;;22.50;41.90
19576;BME280;41589;51.196;7.074;2023-08-24T03:00:49;99111.06;;;22.51;42.06
19576;BME280;41589;51.196;7.074;2023-08-24T03:10:54;99093.19;;;22.58;42.33
19576;BME280;41589;51.196;7.074;2023-08-24T03:15:56;99093.31;;;22.53;42.39
19576;BME280;41589;51.196;7.074;2023-08-24T03:20:59;99092.22;;;22.56;42.54
19576;BME280;41589;51.196;7.074;2023-08-24T03:26:01;99091.25;;;22.66;42.54
19576;BME280;41589;51.196;7.074;2023-08-24T03:31:01;99088.59;;;22.68;42.57
19576;BME280;41589;51.196;7.074;2023-08-24T03:36:03;99077.03;;;22.74;42.42
19576;BME280;41589;51.196;7.074;2023-08-24T03:41:04;99094.25;;;22.87;42.42
19576;BME280;41589;51.196;7.074;2023-08-24T03:46:06;99095.38;;;22.97;41.98
19576;BME280;41589;51.196;7.074;2023-08-24T03:51:06;99107.03;;;23.05;42.14
19576;BME280;41589;51.196;7.074;2023-08-24T03:56:07;99128.56;;;23.12;41.63
19576;BME280;41589;51.196;7.074;2023-08-24T04:01:11;99136.84;;;23.15;42.00
19576;BME280;41589;51.196;7.074;2023-08-24T04:06:11;99132.22;;;23.12;42.26
19576;BME280;41589;51.196;7.074;2023-08-24T04:11:12;99109.78;;;23.11;42.62
19576;BME280;41589;51.196;7.074;2023-08-24T04:16:13;99110.66;;;23.19;42.74
19576;BME280;41589;51.196;7.074;2023-08-24T04:21:16;99104.63;;;23.22;42.43
19576;BME280;41589;51.196;7.074;2023-08-24T04:26:20;99095.31;;;23.16;42.67
19576;BME280;41589;51.196;7.074;2023-08-24T04:31:28;99092.03;;;23.12;42.49
19576;BME280;41589;51.196;7.074;2023-08-24T04:36:29;99087.06;;;23.13;42.80
19576;BME280;41589;51.196;7.074;2023-08-24T04:41:36;99085.38;;;23.04;43.59
19576;BME280;41589;51.196;7.074;2023-08-24T04:46:37;99082.22;;;22.89;44.25
19576;BME280;41589;51.196;7.074;2023-08-24T04:51:37;99092.13;;;22.61;44.90
19576;BME280;41589;51.196;7.074;2023-08-24T04:56:38;99091.25;;;22.34;46.62
19576;BME280;41589;51.196;7.074;2023-08-24T05:01:39;99062.59;;;21.97;47.87
19576;BME280;41589;51.196;7.074;2023-08-24T05:06:39;99069.38;;;21.80;48.99
19576;BME280;41589;51.196;7.074;2023-08-24T05:11:43;99025.22;;;21.51;50.24
19576;BME280;41589;51.196;7.074;2023-08-24T05:16:44;99012.41;;;21.33;51.00
19576;BME280;41589;51.196;7.074;2023-08-24T05:22:10;99024.38;;;21.13;51.13
19576;BME280;41589;51.196;7.074;2023-08-24T05:27:10;99029.22;;;20.99;52.56
19576;BME280;41589;51.196;7.074;2023-08-24T05:43:48;99025.00;;;19.86;81.80
19576;BME280;41589;51.196;7.074;2023-08-24T05:54:08;99009.31;;;19.68;92.85
19576;BME280;41589;51.196;7.074;2023-08-24T05:59:11;98984.94;;;19.61;98.79
19576;BME280;41589;51.196;7.074;2023-08-24T06:04:21;98977.88;;;19.68;100.00
19576;BME280;41589;51.196;7.074;2023-08-24T06:28:49;98957.47;;;20.24;100.00
19576;BME280;41589;51.196;7.074;2023-08-24T06:33:53;98951.06;;;20.42;100.00
19576;BME280;41589;51.196;7.074;2023-08-24T06:39:00;98956.22;;;20.68;100.00
19576;BME280;41589;51.196;7.074;2023-08-24T07:19:09;98885.91;;;22.18;100.00
19576;BME280;41589;51.196;7.074;2023-08-24T07:31:09;98897.44;;;23.18;100.00
19576;BME280;41589;51.196;7.074;2023-08-24T07:41:55;98904.53;;;23.85;88.76
19576;BME280;41589;51.196;7.074;2023-08-24T07:46:55;98905.41;;;24.22;87.33
19576;BME280;41589;51.196;7.074;2023-08-24T07:52:06;98897.22;;;24.55;87.29
19576;BME280;41589;51.196;7.074;2023-08-24T08:10:12;98888.47;;;25.55;73.05
19576;BME280;41589;51.196;7.074;2023-08-24T08:15:16;98904.31;;;25.85;69.54
19576;BME280;41589;51.196;7.074;2023-08-24T08:20:19;98900.84;;;26.17;69.38
19576;BME280;41589;51.196;7.074;2023-08-24T08:54:26;98851.00;;;28.08;54.66
19576;BME280;41589;51.196;7.074;2023-08-24T08:59:50;98858.28;;;28.34;55.76
19576;BME280;41589;51.196;7.074;2023-08-24T09:11:59;98838.78;;;28.52;50.96
19576;BME280;41589;51.196;7.074;2023-08-24T09:17:25;98818.78;;;28.63;51.28
19576;BME280;41589;51.196;7.074;2023-08-24T09:22:39;98797.59;;;28.78;48.97
19576;BME280;41589;51.196;7.074;2023-08-24T09:28:04;98784.31;;;28.75;47.68
19576;BME280;41589;51.196;7.074;2023-08-24T10:03:19;98775.06;;;29.67;41.75
19576;BME280;41589;51.196;7.074;2023-08-24T10:08:35;98779.72;;;29.80;41.00
19576;BME280;41589;51.196;7.074;2023-08-24T10:13:45;98799.31;;;29.99;40.68
19576;BME280;41589;51.196;7.074;2023-08-24T10:19:33;98789.88;;;30.17;40.36
19576;BME280;41589;51.196;7.074;2023-08-24T10:24:37;98798.84;;;29.93;39.87
19576;BME280;41589;51.196;7.074;2023-08-24T10:29:53;98797.00;;;29.97;40.08
19576;BME280;41589;51.196;7.074;2023-08-24T10:35:16;98806.97;;;30.04;40.16
19576;BME280;41589;51.196;7.074;2023-08-24T10:40:33;98804.19;;;29.96;39.88
19576;BME280;41589;51.196;7.074;2023-08-24T11:02:18;98812.66;;;29.75;40.32
19576;BME280;41589;51.196;7.074;2023-08-24T11:07:22;98816.91;;;29.74;40.64
19576;BME280;41589;51.196;7.074;2023-08-24T11:12:25;98797.84;;;29.71;40.73
19576;BME280;41589;51.196;7.074;2023-08-24T11:35:17;98789.34;;;29.82;39.71
19576;BME280;41589;51.196;7.074;2023-08-24T11:40:20;98803.63;;;29.71;39.51
19576;BME280;41589;51.196;7.074;2023-08-24T11:45:42;98810.97;;;29.72;39.83
19576;BME280;41589;51.196;7.074;2023-08-24T11:50:43;98820.84;;;29.59;39.77
19576;BME280;41589;51.196;7.074;2023-08-24T11:55:52;98824.31;;;29.57;40.01
19576;BME280;41589;51.196;7.074;2023-08-24T12:01:11;98829.13;;;29.72;39.90
19576;BME280;41589;51.196;7.074;2023-08-24T12:06:17;98827.81;;;29.83;41.00
19576;BME280;41589;51.196;7.074;2023-08-24T12:11:24;98828.31;;;29.99;40.85
19576;BME280;41589;51.196;7.074;2023-08-24T12:17:09;98814.88;;;29.94;40.70
19576;BME280;41589;51.196;7.074;2023-08-24T12:22:21;98782.19;;;29.93;41.05
19576;BME280;41589;51.196;7.074;2023-08-24T12:28:14;98786.91;;;29.88;40.38
19576;BME280;41589;51.196;7.074;2023-08-24T12:33:27;98763.69;;;29.79;40.83
19576;BME280;41589;51.196;7.074;2023-08-24T12:38:44;98737.97;;;29.66;41.81
19576;BME280;41589;51.196;7.074;2023-08-24T12:43:58;98734.38;;;29.38;41.29
19576;BME280;41589;51.196;7.074;2023-08-24T12:55:25;98702.19;;;28.63;43.06
19576;BME280;41589;51.196;7.074;2023-08-24T13:00:55;98688.97;;;28.42;43.05
19576;BME280;41589;51.196;7.074;2023-08-24T13:06:02;98684.28;;;28.47;43.52
19576;BME280;41589;51.196;7.074;2023-08-24T13:11:22;98665.56;;;28.48;43.21
19576;BME280;41589;51.196;7.074;2023-08-24T13:16:25;98659.00;;;28.48;43.29
19576;BME280;41589;51.196;7.074;2023-08-24T13:21:31;98676.28;;;28.38;43.19
19576;BME280;41589;51.196;7.074;2023-08-24T13:26:31;98663.44;;;28.31;43.55
19576;BME280;41589;51.196;7.074;2023-08-24T13:31:32;98674.09;;;28.11;43.54
19576;BME280;41589;51.196;7.074;2023-08-24T13:36:40;98660.88;;;28.01;43.77
19576;BME280;41589;51.196;7.074;2023-08-24T13:41:43;98659.47;;;27.75;44.34
19576;BME280;41589;51.196;7.074;2023-08-24T13:46:49;98650.44;;;27.53;45.44
19576;BME280;41589;51.196;7.074;2023-08-24T13:51:52;98643.81;;;27.60;46.26
19576;BME280;41589;51.196;7.074;2023-08-24T13:56:57;98667.25;;;27.22;47.69
19576;BME280;41589;51.196;7.074;2023-08-24T14:02:24;98683.44;;;27.18;48.60
19576;BME280;41589;51.196;7.074;2023-08-24T14:08:14;98672.69;;;27.18;50.21
19576;BME280;41589;51.196;7.074;2023-08-24T14:13:17;98679.91;;;27.02;52.55
19576;BME280;41589;51.196;7.074;2023-08-24T14:18:38;98672.88;;;26.88;52.89
19576;BME280;41589;51.196;7.074;2023-08-24T14:23:39;98646.16;;;26.80;54.44
19576;BME280;41589;51.196;7.074;2023-08-24T14:28:56;98666.72;;;26.84;55.45
19576;BME280;41589;51.196;7.074;2023-08-24T14:33:57;98687.66;;;26.59;56.60
19576;BME280;41589;51.196;7.074;2023-08-24T14:38:58;98670.03;;;26.48;57.21
19576;BME280;41589;51.196;7.074;2023-08-24T14:43:59;98685.84;;;26.39;58.02
19576;BME280;41589;51.196;7.074;2023-08-24T14:48:59;98700.09;;;26.22;58.92
19576;BME280;41589;51.196;7.074;2023-08-24T14:54:00;98714.75;;;26.16;60.83
19576;BME280;41589;51.196;7.074;2023-08-24T14:59:00;98707.44;;;26.15;61.16
19576;BME280;41589;51.196;7.074;2023-08-24T15:04:01;98708.81;;;25.99;59.88
19576;BME280;41589;51.196;7.074;2023-08-24T15:09:01;98697.75;;;25.72;59.48
19576;BME280;41589;51.196;7.074;2023-08-24T15:14:02;98693.66;;;25.60;58.48
19576;BME280;41589;51.196;7.074;2023-08-24T15:19:03;98687.91;;;25.29;58.93
19576;BME280;41589;51.196;7.074;2023-08-24T15:24:04;98681.81;;;25.10;59.36
19576;BME280;41589;51.196;7.074;2023-08-24T15:29:12;98666.63;;;25.02;59.66
19576;BME280;41589;51.196;7.074;2023-08-24T15:34:15;98675.22;;;24.94;59.96
19576;BME280;41589;51.196;7.074;2023-08-24T15:39:15;98688.44;;;24.82;60.37
19576;BME280;41589;51.196;7.074;2023-08-24T15:44:16;98700.50;;;24.73;61.33
19576;BME280;41589;51.196;7.074;2023-08-24T15:49:25;98703.47;;;24.44;62.48
19576;BME280;41589;51.196;7.074;2023-08-24T15:54:33;98683.81;;;24.20;63.85
19576;BME280;41589;51.196;7.074;2023-08-24T15:59:34;98686.44;;;24.10;64.86
19576;BME280;41589;51.196;7.074;2023-08-24T16:04:34;98682.78;;;24.10;65.44
19576;BME280;41589;51.196;7.074;2023-08-24T16:09:37;98671.00;;;23.93;66.05
19576;BME280;41589;51.196;7.074;2023-08-24T16:14:38;98638.06;;;23.94;66.52
19576;BME280;41589;51.196;7.074;2023-08-24T16:25:13;98605.34;;;24.04;66.82
19576;BME280;41589;51.196;7.074;2023-08-24T16:30:16;98589.81;;;24.00;66.68
19576;BME280;41589;51.196;7.074;2023-08-24T16:35:25;98576.41;;;24.02;67.03
19576;BME280;41589;51.196;7.074;2023-08-24T16:40:26;98552.63;;;24.02;67.28
19576;BME280;41589;51.196;7.074;2023-08-24T16:45:35;98543.09;;;24.07;66.93
19576;BME280;41589;51.196;7.074;2023-08-24T16:50:55;98538.88;;;24.08;66.95
19576;BME280;41589;51.196;7.074;2023-08-24T16:55:58;98515.84;;;24.00;67.23
19576;BME280;41589;51.196;7.074;2023-08-24T17:01:24;98497.66;;;23.98;67.40
19576;BME280;41589;51.196;7.074;2023-08-24T17:06:30;98468.69;;;23.88;67.70
19576;BME280;41589;51.196;7.074;2023-08-24T17:11:34;98437.44;;;23.84;68.08
19576;BME280;41589;51.196;7.074;2023-08-24T17:16:39;98428.00;;;23.69;69.30
19576;BME280;41589;51.196;7.074;2023-08-24T17:21:43;98425.22;;;23.40;70.67
19576;BME280;41589;51.196;7.074;2023-08-24T17:26:44;98416.41;;;23.38;71.02
19576;BME280;41589;51.196;7.074;2023-08-24T17:31:44;98442.09;;;23.44;70.89
19576;BME280;41589;51.196;7.074;2023-08-24T17:36:44;98445.75;;;23.44;71.23
19576;BME280;41589;51.196;7.074;2023-08-24T17:41:45;98450.31;;;23.40;71.13
19576;BME280;41589;51.196;7.074;2023-08-24T17:46:47;98466.19;;;23.41;70.94
19576;BME280;41589;51.196;7.074;2023-08-24T17:51:47;98452.97;;;23.38;70.86
19576;BME280;41589;51.196;7.074;2023-08-24T17:56:48;98452.25;;;23.45;70.37
19576;BME280;41589;51.196;7.074;2023-08-24T18:01:48;98462.59;;;23.48;70.07
19576;BME280;41589;51.196;7.074;2023-08-24T18:06:48;98445.16;;;23.46;69.83
19576;BME280;41589;51.196;7.074;2023-08-24T18:11:49;98448.81;;;23.46;69.71
19576;BME280;41589;51.196;7.074;2023-08-24T18:16:49;98463.22;;;23.54;69.81
19576;BME280;41589;51.196;7.074;2023-08-24T18:21:50;98460.34;;;23.54;69.49
19576;BME280;41589;51.196;7.074;2023-08-24T18:26:50;98447.84;;;23.51;69.77
19576;BME280;41589;51.196;7.074;2023-08-24T18:31:50;98443.22;;;23.41;69.89
19576;BME280;41589;51.196;7.074;2023-08-24T18:36:51;98453.94;;;23.32;70.22
19576;BME280;41589;51.196;7.074;2023-08-24T18:41:52;98446.25;;;23.27;69.98
19576;BME280;41589;51.196;7.074;2023-08-24T18:46:52;98423.75;;;23.11;70.69
19576;BME280;41589;51.196;7.074;2023-08-24T18:51:53;98446.69;;;23.03;71.36
19576;BME280;41589;51.196;7.074;2023-08-24T18:56:54;98452.38;;;22.95;71.46
19576;BME280;41589;51.196;7.074;2023-08-24T19:01:55;98450.81;;;22.94;71.27
19576;BME280;41589;51.196;7.074;2023-08-24T19:06:55;98433.75;;;22.89;70.83
19576;BME280;41589;51.196;7.074;2023-08-24T19:11:55;98439.72;;;22.91;70.82
19576;BME280;41589;51.196;7.074;2023-08-24T19:16:56;98437.75;;;22.86;71.38
19576;BME280;41589;51.196;7.074;2023-08-24T19:21:56;98414.97;;;22.80;71.03
19576;BME280;41589;51.196;7.074;2023-08-24T19:26:56;98430.28;;;22.83;71.12
19576;BME280;41589;51.196;7.074;2023-08-24T19:31:57;98427.22;;;22.81;71.14
19576;BME280;41589;51.196;7.074;2023-08-24T19:42:38;98437.75;;;22.86;70.84
19576;BME280;41589;51.196;7.074;2023-08-24T19:47:43;98435.66;;;22.86;70.65
19576;BME280;41589;51.196;7.074;2023-08-24T19:52:49;98426.81;;;22.76;70.04
19576;BME280;41589;51.196;7.074;2023-08-24T19:57:52;98435.00;;;22.72;70.65
19576;BME280;41589;51.196;7.074;2023-08-24T20:03:02;98449.22;;;22.57;71.25
19576;BME280;41589;51.196;7.074;2023-08-24T20:08:07;98435.41;;;22.48;71.33
19576;BME280;41589;51.196;7.074;2023-08-24T20:13:12;98433.56;;;22.58;71.16
19576;BME280;41589;51.196;7.074;2023-08-24T20:18:13;98439.66;;;22.55;71.15
19576;BME280;41589;51.196;7.074;2023-08-24T20:23:13;98430.44;;;22.48;71.32
19576;BME280;41589;51.196;7.074;2023-08-24T20:28:20;98427.78;;;22.51;71.27
19576;BME280;41589;51.196;7.074;2023-08-24T20:33:23;98431.81;;;22.55;70.97
19576;BME280;41589;51.196;7.074;2023-08-24T20:38:27;98443.50;;;22.57;70.99
19576;BME280;41589;51.196;7.074;2023-08-24T20:43:27;98429.53;;;22.54;71.15
19576;BME280;41589;51.196;7.074;2023-08-24T20:48:28;98417.44;;;22.47;71.47
19576;BME280;41589;51.196;7.074;2023-08-24T20:53:28;98426.84;;;22.56;71.53
19576;BME280;41589;51.196;7.074;2023-08-24T20:58:29;98427.22;;;22.52;71.69
19576;BME280;41589;51.196;7.074;2023-08-24T21:03:29;98429.13;;;22.50;71.34
19576;BME280;41589;51.196;7.074;2023-08-24T21:08:30;98435.19;;;22.46;71.69
19576;BME280;41589;51.196;7.074;2023-08-24T21:13:30;98428.78;;;22.32;72.10
19576;BME280;41589;51.196;7.074;2023-08-24T21:18:31;98439.25;;;22.30;72.47
19576;BME280;41589;51.196;7.074;2023-08-24T21:23:31;98455.69;;;22.29;72.22
19576;BME280;41589;51.196;7.074;2023-08-24T21:28:32;98469.25;;;22.29;72.37
19576;BME280;41589;51.196;7.074;2023-08-24T21:33:32;98475.75;;;22.29;72.49
19576;BME280;41589;51.196;7.074;2023-08-24T21:38:33;98478.28;;;22.33;72.67
19576;BME280;41589;51.196;7.074;2023-08-24T21:43:44;98478.50;;;22.35;72.38
19576;BME280;41589;51.196;7.074;2023-08-24T21:49:03;98516.97;;;22.26;72.72
19576;BME280;41589;51.196;7.074;2023-08-24T21:54:06;98513.41;;;22.12;73.78
19576;BME280;41589;51.196;7.074;2023-08-24T21:59:10;98527.28;;;22.22;73.66
19576;BME280;41589;51.196;7.074;2023-08-24T22:04:17;98523.94;;;22.31;73.49
19576;BME280;41589;51.196;7.074;2023-08-24T22:09:31;98517.56;;;22.45;73.18
19576;BME280;41589;51.196;7.074;2023-08-24T22:14:32;98502.53;;;22.53;72.21
19576;BME280;41589;51.196;7.074;2023-08-24T22:19:46;98526.66;;;22.57;72.37
19576;BME280;41589;51.196;7.074;2023-08-24T22:24:49;98501.28;;;22.61;71.91
19576;BME280;41589;51.196;7.074;2023-08-24T22:29:52;98515.06;;;22.63;72.04
19576;BME280;41589;51.196;7.074;2023-08-24T22:34:57;98505.53;;;22.68;72.22
19576;BME280;41589;51.196;7.074;2023-08-24T22:40:03;98501.56;;;22.71;71.76
19576;BME280;41589;51.196;7.074;2023-08-24T22:45:50;98482.53;;;22.60;71.54
19576;BME280;41589;51.196;7.074;2023-08-24T22:50:56;98472.53;;;22.54;72.12
19576;BME280;41589;51.196;7.074;2023-08-24T22:56:02;98471.00;;;22.53;72.17
19576;BME280;41589;51.196;7.074;2023-08-24T23:01:15;98442.44;;;22.39;72.13
19576;BME280;41589;51.196;7.074;2023-08-24T23:06:21;98464.28;;;22.29;72.81
19576;BME280;41589;51.196;7.074;2023-08-24T23:11:35;98464.72;;;22.33;72.54
19576;BME280;41589;51.196;7.074;2023-08-24T23:16:36;98454.34;;;22.30;72.53
19576;BME280;41589;51.196;7.074;2023-08-24T23:21:36;98455.91;;;22.31;72.44
19576;BME280;41589;51.196;7.074;2023-08-24T23:26:37;98451.97;;;22.21;73.07
19576;BME280;41589;51.196;7.074;2023-08-24T23:31:37;98447.91;;;22.16;72.96
19576;BME280;41589;51.196;7.074;2023-08-24T23:36:38;98438.25;;;22.06;73.47
19576;BME280;41589;51.196;7.074;2023-08-24T23:41:38;98433.53;;;22.09;73.09
19576;BME280;41589;51.196;7.074;2023-08-24T23:46:38;98436.53;;;22.03;73.16
19576;BME280;41589;51.196;7.074;2023-08-24T23:51:39;98433.06;;;21.97;73.94
19576;BME280;41589;51.196;7.074;2023-08-24T23:56:39;98423.88;;;21.99;74.22
